Time;durP1;ratioP1;P1;durP2;ratioP2;P2;SDS_P1;SDS_P2;PMS_P1;PMS_P2;Temp;Humidity;BMP_temperature;BMP_pressure;BME280_temperature;BME280_humidity;BME280_pressure;Samples;Min_cycle;Max_cycle;Signal;HPM_P1;HPM_P2
2022/07/10 00:01:59;;;;;;;2.80;2.00;;;18.00;98.00;;;;;;5031771;28;20470;-74
2022/07/10 00:04:28;;;;;;;2.70;1.80;;;17.90;98.00;;;;;;5031415;28;20473;-73
2022/07/10 00:06:57;;;;;;;2.13;1.97;;;17.90;98.00;;;;;;5031426;28;20478;-73
2022/07/10 00:09:27;;;;;;;3.43;2.10;;;17.90;98.00;;;;;;5031303;28;20546;-73
2022/07/10 00:11:54;;;;;;;2.70;2.30;;;18.00;98.00;;;;;;5031516;28;20454;-73
2022/07/10 00:14:23;;;;;;;3.27;2.37;;;18.10;98.00;;;;;;5031425;28;20463;-73
2022/07/10 00:16:51;;;;;;;2.60;1.93;;;18.00;98.00;;;;;;5031668;28;20462;-73
2022/07/10 00:19:18;;;;;;;3.10;2.23;;;18.10;98.00;;;;;;5031545;28;20463;-73
2022/07/10 00:21:45;;;;;;;2.47;1.97;;;18.10;98.00;;;;;;5031619;28;20462;-73
2022/07/10 00:24:13;;;;;;;3.20;2.33;;;18.20;98.00;;;;;;5031533;28;20553;-74
2022/07/10 00:26:42;;;;;;;3.30;2.50;;;17.90;98.00;;;;;;5031259;28;20553;-73
2022/07/10 00:29:09;;;;;;;2.23;1.90;;;17.80;98.00;;;;;;5031368;28;20470;-74
2022/07/10 00:31:38;;;;;;;3.87;2.27;;;17.80;98.00;;;;;;5013982;28;20455;-73
2022/07/10 00:34:06;;;;;;;3.20;2.30;;;17.80;98.00;;;;;;5031289;28;20474;-73
2022/07/10 00:36:33;;;;;;;3.20;2.00;;;17.70;98.00;;;;;;5031208;28;20960;-74
2022/07/10 00:39:02;;;;;;;2.30;2.00;;;17.70;98.00;;;;;;5031129;28;20459;-73
2022/07/10 00:41:29;;;;;;;4.07;2.27;;;17.70;98.00;;;;;;5031384;28;20486;-73
2022/07/10 00:43:58;;;;;;;2.63;2.13;;;17.70;98.00;;;;;;5031460;28;20466;-73
2022/07/10 00:46:26;;;;;;;2.40;2.23;;;17.80;98.00;;;;;;5031415;28;20821;-73
2022/07/10 00:49:00;;;;;;;2.40;1.93;;;17.80;98.00;;;;;;5031199;28;20486;-73
2022/07/10 00:51:29;;;;;;;2.50;1.93;;;17.80;98.00;;;;;;5030866;28;20469;-73
2022/07/10 00:54:01;;;;;;;2.57;2.07;;;17.70;98.00;;;;;;5031390;28;20889;-73
2022/07/10 00:56:29;;;;;;;4.90;2.40;;;17.70;98.00;;;;;;5031521;28;20446;-73
2022/07/10 00:58:57;;;;;;;2.33;1.90;;;17.70;98.00;;;;;;5034468;28;20490;-73
2022/07/10 01:01:24;;;;;;;4.03;2.53;;;17.60;98.00;;;;;;5034994;28;20824;-73
2022/07/10 01:03:52;;;;;;;3.53;2.43;;;17.70;98.00;;;;;;5034792;28;20459;-73
2022/07/10 01:06:21;;;;;;;3.50;2.03;;;17.70;98.00;;;;;;5034895;28;21027;-74
2022/07/10 01:08:48;;;;;;;2.43;1.90;;;17.70;98.00;;;;;;5017039;28;20490;-72
2022/07/10 01:11:16;;;;;;;6.47;2.43;;;17.50;98.00;;;;;;5034681;28;20462;-73
2022/07/10 01:13:45;;;;;;;2.53;2.03;;;17.40;98.00;;;;;;5035205;28;20482;-72
2022/07/10 01:16:13;;;;;;;2.33;2.20;;;17.30;98.00;;;;;;5034677;28;20458;-73
2022/07/10 01:18:41;;;;;;;4.20;2.43;;;17.40;98.00;;;;;;5034686;28;20470;-73
2022/07/10 01:21:28;;;;;;;2.97;2.20;;;17.30;98.00;;;;;;5034613;28;20478;-73
2022/07/10 01:23:55;;;;;;;3.40;2.30;;;17.30;98.00;;;;;;5034431;28;20463;-73
2022/07/10 01:26:23;;;;;;;5.00;2.73;;;17.40;98.00;;;;;;5034505;28;20541;-72
2022/07/10 01:28:52;;;;;;;3.33;1.90;;;17.30;98.00;;;;;;5034248;28;21050;-74
2022/07/10 01:31:20;;;;;;;3.70;2.80;;;17.10;98.00;;;;;;5034197;28;20995;-73
2022/07/10 01:33:47;;;;;;;2.70;2.20;;;16.90;98.00;;;;;;5034325;28;20462;-73
2022/07/10 01:36:15;;;;;;;3.23;2.37;;;16.90;98.00;;;;;;5034330;28;20521;-73
2022/07/10 01:38:44;;;;;;;2.97;2.00;;;17.00;98.00;;;;;;5034392;28;20809;-73
2022/07/10 01:41:12;;;;;;;3.37;2.40;;;17.00;98.00;;;;;;5034205;28;20466;-73
2022/07/10 01:43:42;;;;;;;5.33;2.87;;;17.00;98.00;;;;;;5034094;28;20477;-74
2022/07/10 01:46:10;;;;;;;4.20;2.63;;;16.90;98.00;;;;;;5034095;28;20492;-73
2022/07/10 01:48:39;;;;;;;4.23;2.40;;;16.70;98.00;;;;;;5034063;28;20564;-73
2022/07/10 01:51:06;;;;;;;2.87;2.10;;;16.70;98.00;;;;;;5034007;28;20459;-73
2022/07/10 01:53:34;;;;;;;3.53;2.27;;;16.70;98.00;;;;;;5034078;28;20454;-73
2022/07/10 01:56:06;;;;;;;3.17;2.20;;;16.60;98.00;;;;;;5034137;28;20458;-73
2022/07/10 01:58:34;;;;;;;5.27;2.30;;;16.60;98.00;;;;;;5034258;28;20451;-73
2022/07/10 02:01:01;;;;;;;3.47;2.60;;;16.60;98.00;;;;;;5033931;28;20455;-73
2022/07/10 02:06:14;;;;;;;2.90;2.17;;;16.60;98.00;;;;;;5033654;28;20526;-72
2022/07/10 02:08:41;;;;;;;3.30;2.57;;;16.50;98.00;;;;;;5015350;28;20498;-73
2022/07/10 02:11:09;;;;;;;3.00;2.20;;;16.50;98.00;;;;;;5015709;28;20855;-73
2022/07/10 02:13:37;;;;;;;4.17;2.67;;;16.50;98.00;;;;;;5033593;28;20463;-73
2022/07/10 02:16:04;;;;;;;2.80;2.17;;;16.40;98.00;;;;;;5015658;28;20462;-73
2022/07/10 02:18:32;;;;;;;2.27;1.80;;;16.50;98.00;;;;;;5033624;28;20465;-73
2022/07/10 02:20:59;;;;;;;3.60;2.53;;;16.40;98.00;;;;;;5033273;28;20474;-73
2022/07/10 02:23:26;;;;;;;2.07;1.87;;;16.30;98.00;;;;;;5033195;28;20965;-73
2022/07/10 02:25:54;;;;;;;3.30;2.00;;;16.40;98.00;;;;;;5033176;28;20550;-73
2022/07/10 02:28:22;;;;;;;2.70;2.00;;;16.50;98.00;;;;;;5033079;28;20517;-74
2022/07/10 02:30:50;;;;;;;4.13;2.47;;;16.50;98.00;;;;;;5033396;28;20454;-73
2022/07/10 02:33:17;;;;;;;5.27;2.60;;;16.60;98.00;;;;;;5033115;28;20965;-73
2022/07/10 02:35:44;;;;;;;2.90;2.30;;;16.60;98.00;;;;;;5032981;28;20465;-73
2022/07/10 02:38:12;;;;;;;2.63;2.10;;;16.60;98.00;;;;;;5032876;28;20975;-73
2022/07/10 02:40:39;;;;;;;4.00;2.23;;;16.60;98.00;;;;;;5032848;28;20471;-74
2022/07/10 02:43:06;;;;;;;3.00;1.97;;;16.70;98.00;;;;;;5033089;28;20988;-73
2022/07/10 02:45:34;;;;;;;4.50;2.20;;;16.70;98.00;;;;;;5033081;28;20467;-72
2022/07/10 02:48:03;;;;;;;3.23;2.10;;;16.80;98.00;;;;;;5032910;28;20491;-73
2022/07/10 02:50:30;;;;;;;3.67;2.27;;;17.00;98.00;;;;;;5032717;28;20450;-72
2022/07/10 02:52:57;;;;;;;3.40;2.47;;;17.10;98.00;;;;;;5032889;28;20455;-73
2022/07/10 02:55:24;;;;;;;3.07;1.90;;;17.20;98.00;;;;;;5032918;28;20754;-73
2022/07/10 02:57:51;;;;;;;3.07;2.40;;;17.10;98.00;;;;;;5015228;28;20469;-73
2022/07/10 03:00:19;;;;;;;3.20;2.40;;;17.10;98.00;;;;;;5032559;28;20474;-73
2022/07/10 03:02:47;;;;;;;3.43;2.00;;;17.10;98.00;;;;;;5032747;28;20462;-72
2022/07/10 03:05:15;;;;;;;3.07;2.13;;;17.10;98.00;;;;;;5032384;28;20464;-73
2022/07/10 03:07:42;;;;;;;2.93;2.10;;;17.00;98.00;;;;;;5032512;28;20846;-73
2022/07/10 03:10:10;;;;;;;2.47;2.10;;;16.90;98.00;;;;;;5032245;28;20462;-72
2022/07/10 03:12:37;;;;;;;3.50;2.30;;;16.90;98.00;;;;;;5032656;28;20822;-73
2022/07/10 03:15:06;;;;;;;2.57;2.20;;;16.80;98.00;;;;;;5032233;28;20498;-73
2022/07/10 03:17:33;;;;;;;2.70;1.83;;;16.70;98.00;;;;;;5032521;28;20486;-73
2022/07/10 03:20:02;;;;;;;3.60;2.27;;;16.70;98.00;;;;;;5032100;28;20467;-73
2022/07/10 03:22:30;;;;;;;4.17;2.57;;;16.70;98.00;;;;;;5032052;28;21021;-74
2022/07/10 03:24:57;;;;;;;4.43;2.43;;;16.80;98.00;;;;;;5032226;28;20541;-73
2022/07/10 03:27:25;;;;;;;5.10;2.80;;;16.90;98.00;;;;;;5032133;28;20459;-73
2022/07/10 03:29:52;;;;;;;2.17;2.03;;;16.80;98.00;;;;;;5032282;28;20491;-73
2022/07/10 03:32:19;;;;;;;3.90;2.00;;;16.70;98.00;;;;;;5031973;28;20463;-72
2022/07/10 03:34:46;;;;;;;2.87;2.13;;;16.70;98.00;;;;;;5031867;28;20481;-73
2022/07/10 03:37:14;;;;;;;2.67;2.07;;;16.70;98.00;;;;;;5031788;28;20461;-73
2022/07/10 03:39:42;;;;;;;2.73;2.33;;;16.60;98.00;;;;;;5031914;28;20462;-72
2022/07/10 03:42:09;;;;;;;4.63;2.50;;;16.70;98.00;;;;;;5031899;28;20459;-73
2022/07/10 03:44:36;;;;;;;4.43;2.70;;;16.70;98.00;;;;;;5031757;28;20450;-73
2022/07/10 03:47:03;;;;;;;3.23;2.20;;;16.70;98.00;;;;;;5031836;28;20470;-73
2022/07/10 03:49:32;;;;;;;3.00;2.33;;;16.60;98.00;;;;;;5014420;28;20505;-73
2022/07/10 03:52:01;;;;;;;3.83;2.40;;;16.50;98.00;;;;;;5031682;28;20455;-73
2022/07/10 03:54:30;;;;;;;4.03;2.33;;;16.50;98.00;;;;;;5031703;28;20463;-74
2022/07/10 03:59:42;;;;;;;2.90;2.37;;;16.70;98.00;;;;;;5031790;28;21015;-73
2022/07/10 04:02:09;;;;;;;3.77;2.40;;;16.60;98.00;;;;;;5031585;28;20907;-74
2022/07/10 04:04:36;;;;;;;4.13;2.40;;;16.70;98.00;;;;;;5031596;28;20459;-73
2022/07/10 04:07:05;;;;;;;2.70;2.10;;;16.90;98.00;;;;;;5031538;28;20462;-73
2022/07/10 04:09:34;;;;;;;3.37;2.43;;;16.60;98.00;;;;;;5030942;28;20483;-73
2022/07/10 04:12:09;;;;;;;3.20;2.23;;;16.60;98.00;;;;;;5031755;28;20463;-74
2022/07/10 04:14:36;;;;;;;3.70;2.57;;;16.60;98.00;;;;;;5031671;28;20450;-73
2022/07/10 04:17:03;;;;;;;3.10;1.90;;;16.60;98.00;;;;;;5031394;28;20459;-73
2022/07/10 04:19:30;;;;;;;2.70;2.47;;;16.60;98.00;;;;;;5031145;28;20942;-73
2022/07/10 04:21:57;;;;;;;3.13;2.30;;;16.60;98.00;;;;;;5031365;28;20467;-73
2022/07/10 04:24:25;;;;;;;2.63;2.10;;;16.60;98.00;;;;;;5031434;28;20478;-73
2022/07/10 04:26:54;;;;;;;3.73;2.40;;;16.60;98.00;;;;;;5031336;28;20477;-73
2022/07/10 04:29:21;;;;;;;3.10;2.30;;;16.50;98.00;;;;;;5030969;28;20490;-73
2022/07/10 04:31:48;;;;;;;2.63;2.10;;;16.50;98.00;;;;;;5014429;28;20953;-72
2022/07/10 04:34:15;;;;;;;3.30;2.23;;;16.60;98.00;;;;;;5037766;28;20470;-73
2022/07/10 04:36:43;;;;;;;4.20;2.53;;;16.60;98.00;;;;;;5038008;28;20468;-72
2022/07/10 04:39:10;;;;;;;3.57;2.40;;;16.80;98.00;;;;;;5037907;28;20952;-73
2022/07/10 04:41:37;;;;;;;2.73;2.07;;;16.70;98.00;;;;;;5037732;28;20469;-74
2022/07/10 04:44:06;;;;;;;4.00;2.60;;;16.90;98.00;;;;;;5037611;28;20454;-72
2022/07/10 04:46:34;;;;;;;10.53;2.30;;;17.10;98.00;;;;;;5037769;28;20481;-73
2022/07/10 04:49:01;;;;;;;3.33;2.70;;;17.20;98.00;;;;;;5019909;28;20486;-73
2022/07/10 04:51:29;;;;;;;3.57;2.33;;;17.20;98.00;;;;;;5037556;28;20470;-73
2022/07/10 04:53:56;;;;;;;3.93;2.20;;;17.30;98.00;;;;;;5037826;28;20458;-73
2022/07/10 04:56:24;;;;;;;3.50;2.40;;;17.30;98.00;;;;;;5020163;28;20462;-73
2022/07/10 04:58:51;;;;;;;4.30;3.20;;;17.30;98.00;;;;;;5037759;28;20466;-74
2022/07/10 05:01:19;;;;;;;3.73;2.97;;;17.40;98.00;;;;;;5020072;28;20466;-73
2022/07/10 05:03:48;;;;;;;3.57;2.40;;;17.20;98.00;;;;;;5037494;28;20494;-73
2022/07/10 05:06:15;;;;;;;3.07;2.23;;;17.10;98.00;;;;;;5019686;28;20845;-73
2022/07/10 05:08:45;;;;;;;4.43;3.13;;;17.10;98.00;;;;;;5037332;28;20487;-72
2022/07/10 05:11:12;;;;;;;3.07;2.20;;;17.00;98.00;;;;;;5037575;28;20462;-72
2022/07/10 05:13:39;;;;;;;5.33;2.50;;;17.00;98.00;;;;;;5037543;28;20482;-73
2022/07/10 05:16:07;;;;;;;3.43;2.23;;;16.90;98.00;;;;;;5037638;28;20948;-73
2022/07/10 05:18:36;;;;;;;5.30;2.17;;;17.00;98.00;;;;;;5037304;28;20481;-72
2022/07/10 05:21:04;;;;;;;3.47;2.00;;;17.10;98.00;;;;;;5037218;28;20537;-73
2022/07/10 05:23:31;;;;;;;3.70;2.37;;;17.30;98.00;;;;;;5018341;28;20989;-73
2022/07/10 05:25:58;;;;;;;4.40;2.30;;;17.30;98.00;;;;;;5037213;28;20469;-73
2022/07/10 05:28:25;;;;;;;23.57;3.00;;;17.40;98.00;;;;;;5037087;28;20470;-72
2022/07/10 05:30:52;;;;;;;3.70;2.43;;;17.40;98.00;;;;;;5037323;28;20473;-73
2022/07/10 05:33:20;;;;;;;2.63;2.00;;;17.20;98.00;;;;;;5037656;28;20538;-72
2022/07/10 05:35:48;;;;;;;3.30;2.40;;;17.20;98.00;;;;;;5037192;28;20454;-74
2022/07/10 05:38:17;;;;;;;6.80;2.00;;;17.20;98.00;;;;;;5037112;28;20973;-73
2022/07/10 05:40:44;;;;;;;3.43;2.10;;;17.10;98.00;;;;;;5019607;28;20461;-73
2022/07/10 05:43:14;;;;;;;2.93;2.23;;;17.20;98.00;;;;;;5036688;28;20458;-73
2022/07/10 05:45:41;;;;;;;2.40;1.83;;;17.10;98.00;;;;;;5033085;28;20520;-73
2022/07/10 05:48:08;;;;;;;2.90;2.40;;;17.20;98.00;;;;;;5034066;28;20463;-73
2022/07/10 05:50:35;;;;;;;1.53;1.50;;;17.40;98.00;;;;;;5033918;28;20490;-73
2022/07/10 05:53:04;;;;;;;5.27;2.30;;;17.40;98.00;;;;;;5033869;28;20474;-73
2022/07/10 05:55:31;;;;;;;3.17;2.47;;;17.50;98.00;;;;;;5034081;28;20965;-73
2022/07/10 05:57:59;;;;;;;2.07;1.80;;;17.60;98.00;;;;;;5034257;28;20455;-73
2022/07/10 06:00:26;;;;;;;2.97;2.07;;;17.70;98.00;;;;;;5034250;28;20462;-74
2022/07/10 06:02:53;;;;;;;2.43;2.00;;;17.80;98.00;;;;;;5033862;28;20810;-73
2022/07/10 06:05:21;;;;;;;2.27;1.93;;;17.80;98.00;;;;;;5033545;28;20467;-74
2022/07/10 06:07:48;;;;;;;2.33;1.90;;;17.90;98.00;;;;;;5033954;28;20454;-73
2022/07/10 06:10:17;;;;;;;4.33;2.13;;;17.90;98.00;;;;;;5015947;28;20490;-74
2022/07/10 06:12:44;;;;;;;1.87;1.60;;;17.80;98.00;;;;;;5033710;28;20458;-74
2022/07/10 06:15:12;;;;;;;2.20;1.90;;;17.60;98.00;;;;;;5016081;28;21004;-72
2022/07/10 06:17:39;;;;;;;2.67;1.90;;;17.60;98.00;;;;;;5033322;28;20457;-74
2022/07/10 06:20:07;;;;;;;4.03;2.23;;;17.50;98.00;;;;;;5015852;28;20991;-73
2022/07/10 06:22:34;;;;;;;2.73;1.90;;;17.50;98.00;;;;;;5033372;28;20463;-73
2022/07/10 06:25:03;;;;;;;2.90;2.30;;;17.40;98.00;;;;;;5015934;28;20934;-75
2022/07/10 06:27:32;;;;;;;3.70;2.00;;;17.40;98.00;;;;;;5015720;28;20458;-73
2022/07/10 06:29:59;;;;;;;2.07;1.90;;;17.60;98.00;;;;;;5032954;28;20533;-73
2022/07/10 06:32:27;;;;;;;2.73;2.17;;;17.60;98.00;;;;;;5033131;28;20860;-73
2022/07/10 06:34:54;;;;;;;3.17;2.20;;;17.70;98.00;;;;;;5033245;28;20836;-72
2022/07/10 06:37:22;;;;;;;3.17;2.00;;;17.70;98.00;;;;;;5033367;28;20473;-74
2022/07/10 06:39:49;;;;;;;3.23;2.17;;;17.70;98.00;;;;;;5033072;28;20462;-72
2022/07/10 06:42:16;;;;;;;2.53;1.73;;;17.80;98.00;;;;;;5032977;28;20463;-73
2022/07/10 06:44:46;;;;;;;1.80;1.77;;;17.80;98.00;;;;;;5015365;28;20455;-74
2022/07/10 06:49:59;;;;;;;2.33;2.03;;;17.90;98.00;;;;;;5033159;28;20485;-74
2022/07/10 06:52:27;;;;;;;4.70;2.40;;;17.90;98.00;;;;;;5032790;28;20459;-73
2022/07/10 06:54:54;;;;;;;3.30;1.70;;;18.00;98.00;;;;;;5032657;28;20455;-73
2022/07/10 06:57:22;;;;;;;2.67;2.20;;;18.00;98.00;;;;;;5033009;28;20478;-73
2022/07/10 06:59:51;;;;;;;2.57;1.77;;;17.90;98.00;;;;;;5032573;28;20458;-73
2022/07/10 07:02:18;;;;;;;3.50;2.00;;;17.90;98.00;;;;;;5032565;28;20450;-70
2022/07/10 07:04:45;;;;;;;2.07;1.90;;;17.90;98.00;;;;;;5032557;28;20945;-71
2022/07/10 07:07:24;;;;;;;2.20;1.60;;;17.70;98.00;;;;;;5015302;28;20954;-71
2022/07/10 07:09:52;;;;;;;2.57;1.70;;;17.80;98.00;;;;;;5032235;28;20509;-70
2022/07/10 07:12:19;;;;;;;2.30;1.80;;;17.90;98.00;;;;;;5032410;28;20454;-72
2022/07/10 07:14:46;;;;;;;2.17;1.67;;;18.00;98.00;;;;;;5032309;28;20469;-71
2022/07/10 07:17:21;;;;;;;2.07;1.60;;;18.10;98.00;;;;;;5032327;28;20458;-71
2022/07/10 07:25:19;;;;;;;2.20;1.60;;;18.20;98.00;;;;;;5032404;28;20795;-71
2022/07/10 07:27:46;;;;;;;2.27;1.50;;;18.30;98.00;;;;;;5031989;28;20463;-71
2022/07/10 07:30:16;;;;;;;1.70;1.43;;;18.30;98.00;;;;;;5031742;28;20490;-71
2022/07/10 07:32:47;;;;;;;1.40;1.40;;;18.40;98.00;;;;;;5014357;28;20470;-71
2022/07/10 07:35:16;;;;;;;1.80;1.30;;;18.40;98.00;;;;;;5031890;28;20529;-70
2022/07/10 07:37:45;;;;;;;1.90;1.60;;;18.40;98.00;;;;;;5014367;28;20451;-71
2022/07/10 07:40:14;;;;;;;3.23;1.80;;;18.60;98.00;;;;;;5032178;28;21009;-71
2022/07/10 07:42:42;;;;;;;1.63;1.50;;;18.60;98.00;;;;;;5032561;28;20538;-71
2022/07/10 07:45:10;;;;;;;1.87;1.30;;;18.60;98.00;;;;;;5032302;28;20459;-71
2022/07/10 07:47:46;;;;;;;1.80;1.60;;;18.70;98.00;;;;;;5032453;28;20470;-71
2022/07/10 07:50:15;;;;;;;2.30;1.40;;;18.70;98.00;;;;;;5032363;28;20514;-71
2022/07/10 07:52:42;;;;;;;1.40;1.30;;;18.80;98.00;;;;;;5037635;28;20466;-71
2022/07/10 07:55:11;;;;;;;1.73;1.50;;;18.90;98.00;;;;;;5052119;28;20476;-70
2022/07/10 07:57:38;;;;;;;2.00;1.53;;;18.90;98.00;;;;;;5052338;28;20457;-71
2022/07/10 08:00:07;;;;;;;1.70;1.40;;;19.00;98.00;;;;;;5051369;28;20454;-72
2022/07/10 08:02:35;;;;;;;2.03;1.60;;;19.10;98.00;;;;;;5052121;28;20533;-71
2022/07/10 08:05:05;;;;;;;1.73;1.60;;;19.10;98.00;;;;;;5051934;28;20462;-71
2022/07/10 08:07:37;;;;;;;1.93;1.57;;;19.00;98.00;;;;;;5051163;28;20968;-71
2022/07/10 08:10:05;;;;;;;1.87;1.40;;;18.90;98.00;;;;;;5051634;28;20486;-71
2022/07/10 08:12:33;;;;;;;2.03;1.50;;;18.80;98.00;;;;;;5051651;28;20468;-71
2022/07/10 08:15:00;;;;;;;1.50;1.47;;;18.70;98.00;;;;;;5051800;28;20458;-71
2022/07/10 08:17:28;;;;;;;2.27;1.70;;;18.70;98.00;;;;;;5051659;28;20458;-71
2022/07/10 08:20:05;;;;;;;1.73;1.63;;;18.80;98.00;;;;;;5051825;28;20454;-72
2022/07/10 08:22:34;;;;;;;2.00;1.53;;;18.90;98.00;;;;;;5035661;28;20461;-72
2022/07/10 08:25:01;;;;;;;1.50;1.50;;;19.00;98.00;;;;;;5051759;28;20465;-71
2022/07/10 08:27:28;;;;;;;1.67;1.53;;;19.00;98.00;;;;;;5034099;28;21190;-71
2022/07/10 08:29:55;;;;;;;1.83;1.53;;;18.90;98.00;;;;;;5028569;28;20502;-71
2022/07/10 08:32:23;;;;;;;1.93;1.50;;;18.80;98.00;;;;;;5028752;28;20451;-71
2022/07/10 08:34:50;;;;;;;2.40;1.50;;;18.80;98.00;;;;;;5029724;28;20489;-71
2022/07/10 08:37:19;;;;;;;1.30;1.30;;;18.80;98.00;;;;;;5029001;28;20478;-71
2022/07/10 08:39:48;;;;;;;1.50;1.37;;;18.90;98.00;;;;;;5028896;28;20467;-71
2022/07/10 08:42:18;;;;;;;1.50;1.40;;;19.00;98.00;;;;;;5011379;28;20454;-71
2022/07/10 08:44:45;;;;;;;2.17;1.73;;;19.10;98.00;;;;;;5028896;28;20469;-71
2022/07/10 08:47:12;;;;;;;1.60;1.40;;;19.30;98.00;;;;;;5029010;28;20469;-71
2022/07/10 08:49:47;;;;;;;2.47;1.57;;;19.30;98.00;;;;;;5027115;28;20513;-71
2022/07/10 08:52:24;;;;;;;2.03;1.50;;;19.30;98.00;;;;;;5028748;28;20467;-71
2022/07/10 08:54:53;;;;;;;4.83;1.97;;;19.40;98.00;;;;;;5028979;28;21087;-71
2022/07/10 08:57:21;;;;;;;2.30;1.50;;;19.60;98.00;;;;;;5028827;28;20463;-71
2022/07/10 08:59:58;;;;;;;2.10;1.60;;;19.70;98.00;;;;;;5028405;28;20522;-71
2022/07/10 09:02:25;;;;;;;1.70;1.30;;;19.70;98.00;;;;;;5028545;28;20454;-64
2022/07/10 09:04:52;;;;;;;2.17;1.63;;;19.90;98.00;;;;;;5028500;28;20893;-64
2022/07/10 09:07:19;;;;;;;2.87;1.67;;;20.10;98.00;;;;;;5028660;28;20462;-64
2022/07/10 09:09:55;;;;;;;1.60;1.50;;;20.10;98.00;;;;;;5028516;28;20568;-64
2022/07/10 09:12:22;;;;;;;2.40;1.60;;;20.20;98.00;;;;;;5028329;28;20458;-64
2022/07/10 09:14:50;;;;;;;2.20;1.80;;;20.40;98.00;;;;;;5028445;28;20973;-64
2022/07/10 09:17:17;;;;;;;1.70;1.60;;;20.40;97.90;;;;;;5028451;28;20501;-63
2022/07/10 09:19:46;;;;;;;2.00;1.57;;;20.40;98.00;;;;;;5031866;28;20466;-64
2022/07/10 09:22:14;;;;;;;1.77;1.40;;;20.20;98.00;;;;;;5014935;28;20458;-64
2022/07/10 09:24:43;;;;;;;2.43;1.47;;;20.10;98.00;;;;;;5032349;28;20528;-64
2022/07/10 09:27:14;;;;;;;2.30;1.73;;;20.30;98.00;;;;;;5032044;28;20524;-64
2022/07/10 09:29:51;;;;;;;1.90;1.53;;;20.60;97.50;;;;;;5032095;28;20532;-64
2022/07/10 09:32:19;;;;;;;2.17;1.60;;;20.70;97.80;;;;;;5032326;28;20794;-64
2022/07/10 09:34:48;;;;;;;1.80;1.70;;;20.70;98.00;;;;;;5032129;28;20467;-64
2022/07/10 09:37:24;;;;;;;2.00;1.47;;;20.80;98.00;;;;;;5032443;28;20463;-64
2022/07/10 09:39:57;;;;;;;2.27;1.77;;;20.70;96.80;;;;;;5032128;28;20458;-64
2022/07/10 09:42:36;;;;;;;3.00;1.70;;;20.60;95.90;;;;;;5015005;28;20824;-63
2022/07/10 09:45:18;;;;;;;1.87;1.60;;;20.70;95.00;;;;;;5028988;28;20479;-71
2022/07/10 09:47:54;;;;;;;1.70;1.47;;;21.00;98.00;;;;;;5014665;28;20470;-71
2022/07/10 09:50:24;;;;;;;2.20;1.50;;;21.20;95.00;;;;;;5029441;28;20494;-70
2022/07/10 09:52:53;;;;;;;3.27;1.73;;;21.10;93.00;;;;;;5032170;28;20478;-70
2022/07/10 09:55:22;;;;;;;1.73;1.50;;;21.00;92.90;;;;;;5014422;28;20976;-70
2022/07/10 09:57:55;;;;;;;2.33;1.60;;;20.80;94.40;;;;;;5034232;28;20458;-70
2022/07/10 10:00:26;;;;;;;3.50;1.63;;;20.50;94.10;;;;;;5034140;28;20497;-70
2022/07/10 10:02:57;;;;;;;1.80;1.60;;;20.40;95.30;;;;;;5034293;28;20516;-70
2022/07/10 10:05:37;;;;;;;1.60;1.50;;;20.30;94.50;;;;;;5034371;28;20602;-70
2022/07/10 10:08:11;;;;;;;3.10;1.70;;;20.50;94.90;;;;;;5017316;28;20851;-70
2022/07/10 10:10:44;;;;;;;2.00;1.50;;;20.50;93.80;;;;;;5034303;28;20492;-70
2022/07/10 10:13:16;;;;;;;4.50;2.10;;;20.50;92.90;;;;;;5034245;28;20462;-70
2022/07/10 10:15:44;;;;;;;1.60;1.60;;;20.40;92.60;;;;;;5034255;28;21071;-70
2022/07/10 10:18:13;;;;;;;2.30;1.60;;;20.60;94.00;;;;;;5034276;28;20459;-70
2022/07/10 10:20:44;;;;;;;2.07;1.53;;;20.80;92.50;;;;;;5016507;28;20466;-70
2022/07/10 10:23:13;;;;;;;1.50;1.30;;;21.00;91.90;;;;;;5034181;28;20458;-70
2022/07/10 10:25:40;;;;;;;2.00;1.50;;;21.40;92.10;;;;;;5033631;28;20466;-70
2022/07/10 10:28:10;;;;;;;2.20;1.60;;;21.40;88.80;;;;;;5033953;28;20466;-70
2022/07/10 10:30:43;;;;;;;3.77;2.60;;;20.90;90.00;;;;;;5033184;28;20515;-70
2022/07/10 10:33:45;;;;;;;2.00;1.60;;;20.80;89.20;;;;;;5033933;28;20466;-70
2022/07/10 10:36:13;;;;;;;2.40;1.60;;;20.70;90.40;;;;;;4937323;28;20465;-70
2022/07/10 10:39:03;;;;;;;3.50;1.57;;;20.60;89.50;;;;;;5018597;28;20540;-71
2022/07/10 10:41:37;;;;;;;1.67;1.20;;;20.50;90.70;;;;;;5033756;28;20451;-70
2022/07/10 10:44:23;;;;;;;1.50;1.40;;;20.50;90.80;;;;;;5033880;28;20467;-70
2022/07/10 10:47:05;;;;;;;2.70;1.80;;;20.70;90.40;;;;;;5033825;28;20540;-70
2022/07/10 10:49:53;;;;;;;2.97;1.50;;;20.60;89.00;;;;;;5034570;28;20565;-71
2022/07/10 10:52:21;;;;;;;1.60;1.50;;;20.40;89.80;;;;;;5034305;28;21043;-71
2022/07/10 10:55:14;;;;;;;1.67;1.47;;;20.80;91.50;;;;;;5033760;28;20454;-71
2022/07/10 10:57:51;;;;;;;1.67;1.50;;;21.00;89.50;;;;;;5033304;28;20533;-71
2022/07/10 11:00:37;;;;;;;1.57;1.37;;;21.00;89.30;;;;;;5032892;28;20845;-71
2022/07/10 11:03:20;;;;;;;2.07;1.60;;;20.90;90.40;;;;;;5033249;28;20461;-71
2022/07/10 11:05:49;;;;;;;1.60;1.40;;;20.80;89.70;;;;;;5016838;28;20462;-71
2022/07/10 11:08:36;;;;;;;1.70;1.60;;;20.70;89.30;;;;;;5033037;28;20447;-71
2022/07/10 11:11:44;;;;;;;1.93;1.67;;;20.90;92.40;;;;;;5032713;28;20996;-71
2022/07/10 11:14:12;;;;;;;1.53;1.30;;;21.00;88.90;;;;;;5032911;28;20543;-71
2022/07/10 11:16:48;;;;;;;1.73;1.53;;;21.00;87.40;;;;;;5033097;28;20814;-71
2022/07/10 11:19:23;;;;;;;1.80;1.40;;;21.30;88.80;;;;;;5032998;28;20541;-71
2022/07/10 11:22:10;;;;;;;1.50;1.33;;;21.40;87.30;;;;;;5015275;28;20823;-71
2022/07/10 11:24:49;;;;;;;2.13;1.40;;;21.10;88.00;;;;;;5030991;28;20525;-71
2022/07/10 11:27:29;;;;;;;2.23;1.57;;;21.00;88.30;;;;;;5032972;28;20458;-71
2022/07/10 11:30:00;;;;;;;1.70;1.30;;;21.50;87.90;;;;;;5032549;28;20473;-71
2022/07/10 11:32:35;;;;;;;1.60;1.50;;;22.20;87.10;;;;;;5032815;28;20466;-71
2022/07/10 11:35:08;;;;;;;4.10;1.57;;;22.40;87.90;;;;;;5032372;28;20466;-71
2022/07/10 11:37:36;;;;;;;1.50;1.50;;;22.40;83.80;;;;;;5032690;28;20554;-66
2022/07/10 11:40:11;;;;;;;1.37;1.30;;;22.10;84.90;;;;;;5015385;28;20840;-71
2022/07/10 11:42:54;;;;;;;2.70;1.73;;;22.30;85.20;;;;;;5031549;28;20807;-72
2022/07/10 11:45:28;;;;;;;1.80;1.67;;;22.70;85.50;;;;;;5032434;28;20463;-71
2022/07/10 11:47:56;;;;;;;4.90;1.50;;;22.90;87.00;;;;;;5031723;28;20472;-71
2022/07/10 11:50:25;;;;;;;1.57;1.57;;;23.40;85.00;;;;;;5032462;28;20949;-69
2022/07/10 11:52:53;;;;;;;1.70;1.53;;;23.90;82.10;;;;;;5032679;28;20455;-69
2022/07/10 11:55:23;;;;;;;1.77;1.30;;;24.10;81.70;;;;;;5032476;28;21018;-69
2022/07/10 11:57:50;;;;;;;1.50;1.40;;;23.90;81.40;;;;;;5031489;28;20949;-69
2022/07/10 12:00:25;;;;;;;2.20;1.43;;;23.50;81.80;;;;;;5032344;28;20465;-69
2022/07/10 12:02:53;;;;;;;1.90;1.60;;;23.10;82.30;;;;;;5032049;28;20481;-71
2022/07/10 12:05:37;;;;;;;1.87;1.57;;;23.10;85.10;;;;;;5031982;28;20465;-71
2022/07/10 12:08:13;;;;;;;2.00;1.70;;;23.00;83.80;;;;;;5031049;28;20455;-71
2022/07/10 12:10:42;;;;;;;1.90;1.50;;;23.10;83.30;;;;;;5031777;28;20486;-69
2022/07/10 12:13:11;;;;;;;1.90;1.60;;;23.30;85.10;;;;;;5032154;28;20864;-70
2022/07/10 12:15:40;;;;;;;1.80;1.60;;;23.60;83.10;;;;;;5031923;28;20514;-70
2022/07/10 12:18:09;;;;;;;2.20;1.77;;;23.60;80.20;;;;;;5030746;28;20546;-69
2022/07/10 12:20:42;;;;;;;4.70;2.03;;;23.40;82.10;;;;;;5032093;28;20453;-69
2022/07/10 12:23:10;;;;;;;1.70;1.50;;;23.40;81.90;;;;;;5031766;28;20450;-70
2022/07/10 12:25:37;;;;;;;2.00;1.50;;;23.10;81.60;;;;;;5031786;28;20454;-71
2022/07/10 12:28:05;;;;;;;1.37;1.33;;;23.00;82.20;;;;;;5031584;28;20462;-71
2022/07/10 12:30:40;;;;;;;1.70;1.60;;;23.40;82.80;;;;;;5031695;28;20464;-71
2022/07/10 12:33:16;;;;;;;1.87;1.63;;;23.30;81.80;;;;;;5030822;28;20462;-71
2022/07/10 12:35:53;;;;;;;1.40;1.40;;;23.20;84.30;;;;;;5031862;28;20492;-71
2022/07/10 12:38:22;;;;;;;2.70;2.00;;;23.20;83.70;;;;;;5031871;28;20921;-72
2022/07/10 12:40:49;;;;;;;1.80;1.50;;;22.90;81.70;;;;;;5031874;28;20467;-71
2022/07/10 12:43:29;;;;;;;1.73;1.37;;;23.10;84.00;;;;;;5031725;28;20457;-71
2022/07/10 12:46:16;;;;;;;2.40;1.70;;;23.00;82.00;;;;;;5031383;28;20478;-72
2022/07/10 12:48:44;;;;;;;2.20;1.70;;;23.50;83.40;;;;;;5031940;28;20458;-73
2022/07/10 12:51:24;;;;;;;2.37;1.60;;;24.20;83.40;;;;;;5031971;28;21107;-71
2022/07/10 12:53:51;;;;;;;1.60;1.50;;;24.90;80.90;;;;;;5033722;28;20466;-71
2022/07/10 12:56:33;;;;;;;3.30;1.70;;;25.40;79.30;;;;;;5036240;28;20829;-71
2022/07/10 12:59:01;;;;;;;2.20;1.60;;;26.00;78.40;;;;;;5036082;28;20454;-71
2022/07/10 13:01:41;;;;;;;1.30;1.30;;;25.70;75.60;;;;;;5035554;28;20454;-71
2022/07/10 13:04:09;;;;;;;2.37;1.50;;;25.00;76.30;;;;;;5035483;28;20457;-71
2022/07/10 13:06:40;;;;;;;2.63;1.50;;;24.30;77.60;;;;;;5035651;28;20858;-71
2022/07/10 13:09:23;;;;;;;1.80;1.50;;;24.30;79.90;;;;;;5035503;28;20458;-71
2022/07/10 13:11:51;;;;;;;3.03;1.53;;;24.90;77.20;;;;;;5034384;28;20856;-71
2022/07/10 13:14:18;;;;;;;1.50;1.40;;;25.50;78.60;;;;;;5035369;28;20462;-71
2022/07/10 13:16:45;;;;;;;1.70;1.40;;;25.90;76.10;;;;;;5035266;28;20465;-71